Time;durP1;ratioP1;P1;durP2;ratioP2;P2;SDS_P1;SDS_P2;PMS_P1;PMS_P2;Temp;Humidity;BMP_temperature;BMP_pressure;BME280_temperature;BME280_humidity;BME280_pressure;Samples;Min_cycle;Max_cycle;Signal;HPM_P1;HPM_P2
2023/08/05 00:00:20;;;;;;;;;;;16.10;99.90;;;;;;7322147;19;9337;-83
2023/08/05 00:02:49;;;;;;;;;;;16.10;99.90;;;;;;7322373;19;9265;-83
2023/08/05 00:05:18;;;;;;;;;;;16.10;99.90;;;;;;7321131;19;10393;-82
2023/08/05 00:07:47;;;;;;;;;;;16.00;99.90;;;;;;7320363;19;9304;-82
2023/08/05 00:10:19;;;;;;;;;;;16.00;99.90;;;;;;7320540;19;9504;-83
2023/08/05 00:12:48;;;;;;;;;;;16.10;99.90;;;;;;7322059;19;9311;-83
2023/08/05 00:15:17;;;;;;;;;;;16.10;99.90;;;;;;7320704;19;9163;-83
2023/08/05 00:17:46;;;;;;;;;;;16.10;99.90;;;;;;7321059;19;9220;-83
2023/08/05 00:20:14;;;;;;;;;;;16.10;99.90;;;;;;7320828;19;9508;-82
2023/08/05 00:22:43;;;;;;;;;;;16.10;99.90;;;;;;7321339;19;9615;-82
2023/08/05 00:25:12;;;;;;;;;;;16.10;99.90;;;;;;7320581;19;9618;-82
2023/08/05 00:27:44;;;;;;;;;;;16.10;99.90;;;;;;7320615;19;9221;-82
2023/08/05 00:30:14;;;;;;;;;;;16.10;99.90;;;;;;7320448;19;9328;-83
2023/08/05 00:32:43;;;;;;;;;;;16.00;99.90;;;;;;7321020;19;9138;-83
2023/08/05 00:35:12;;;;;;;;;;;16.00;99.90;;;;;;7320351;19;9479;-82
2023/08/05 00:37:41;;;;;;;;;;;16.00;99.90;;;;;;7321630;19;9510;-83
2023/08/05 00:40:12;;;;;;;;;;;16.00;99.90;;;;;;7321327;19;9583;-83
2023/08/05 00:42:40;;;;;;;;;;;16.00;99.90;;;;;;7321656;19;9139;-83
2023/08/05 00:45:12;;;;;;;;;;;16.00;99.90;;;;;;7321700;19;9772;-83
2023/08/05 00:47:43;;;;;;;;;;;16.00;99.90;;;;;;7321155;19;9182;-83
2023/08/05 00:50:14;;;;;;;;;;;16.00;99.90;;;;;;7322039;19;9158;-83
2023/08/05 00:52:46;;;;;;;;;;;16.10;99.90;;;;;;7322021;19;9237;-83
2023/08/05 00:55:14;;;;;;;;;;;16.00;99.90;;;;;;7321655;19;9170;-84
2023/08/05 00:57:45;;;;;;;;;;;16.00;99.90;;;;;;7320183;19;9510;-83
2023/08/05 01:00:16;;;;;;;;;;;16.00;99.90;;;;;;7320166;19;9531;-84
2023/08/05 01:02:45;;;;;;;;;;;16.00;99.90;;;;;;7321287;19;9490;-83
2023/08/05 01:05:15;;;;;;;;;;;16.00;99.90;;;;;;7320724;19;10443;-83
2023/08/05 01:07:47;;;;;;;;;;;16.00;99.90;;;;;;7318376;19;9214;-83
2023/08/05 01:10:16;;;;;;;;;;;15.90;99.90;;;;;;7320480;19;9211;-83
2023/08/05 01:12:46;;;;;;;;;;;16.00;99.90;;;;;;7319546;19;9252;-83
2023/08/05 01:15:17;;;;;;;;;;;15.90;99.90;;;;;;7320459;19;9343;-83
2023/08/05 01:17:46;;;;;;;;;;;15.90;99.90;;;;;;7318694;19;9468;-83
2023/08/05 01:20:18;;;;;;;;;;;15.80;99.90;;;;;;7320265;19;9534;-82
2023/08/05 01:22:48;;;;;;;;;;;15.70;99.90;;;;;;7316933;19;9250;-83
2023/08/05 01:25:35;;;;;;;;;;;15.60;99.90;;;;;;7319990;19;9270;-83
2023/08/05 01:28:05;;;;;;;;;;;15.60;99.90;;;;;;7318127;19;9656;-83
2023/08/05 01:30:36;;;;;;;;;;;15.60;99.90;;;;;;7319897;19;9262;-83
2023/08/05 01:33:06;;;;;;;;;;;15.60;99.90;;;;;;7320076;19;9400;-83
2023/08/05 01:35:35;;;;;;;;;;;15.60;99.90;;;;;;7320000;19;10602;-83
2023/08/05 01:38:04;;;;;;;;;;;15.70;99.90;;;;;;7319987;19;9438;-83
2023/08/05 01:40:36;;;;;;;;;;;15.80;99.90;;;;;;7319685;19;9128;-83
2023/08/05 01:43:05;;;;;;;;;;;15.80;99.90;;;;;;7318874;19;9123;-83
2023/08/05 01:45:34;;;;;;;;;;;15.80;99.90;;;;;;7318888;19;9473;-82
2023/08/05 01:48:03;;;;;;;;;;;15.80;99.90;;;;;;7318476;19;9583;-83
2023/08/05 01:50:33;;;;;;;;;;;15.80;99.90;;;;;;7319487;19;9308;-83
2023/08/05 01:53:02;;;;;;;;;;;15.70;99.90;;;;;;7318185;19;11120;-83
2023/08/05 01:55:30;;;;;;;;;;;15.80;99.90;;;;;;7319127;19;9533;-83
2023/08/05 01:58:02;;;;;;;;;;;15.80;99.90;;;;;;7318037;19;9322;-83
2023/08/05 02:00:31;;;;;;;;;;;15.80;99.90;;;;;;7317566;19;9495;-82
2023/08/05 02:03:00;;;;;;;;;;;15.80;99.90;;;;;;7317956;19;9304;-82
2023/08/05 02:05:29;;;;;;;;;;;15.80;99.90;;;;;;7319548;19;9194;-83
2023/08/05 02:07:58;;;;;;;;;;;15.80;99.90;;;;;;7316397;19;10150;-82
2023/08/05 02:10:27;;;;;;;;;;;15.80;99.90;;;;;;7318986;19;9376;-82
2023/08/05 02:12:55;;;;;;;;;;;15.80;99.90;;;;;;7318998;19;9644;-83
2023/08/05 02:15:29;;;;;;;;;;;15.90;99.90;;;;;;7317973;19;9598;-82
2023/08/05 02:17:58;;;;;;;;;;;15.80;99.90;;;;;;7318947;19;9464;-82
2023/08/05 02:20:27;;;;;;;;;;;15.70;99.90;;;;;;7319058;19;9313;-83
2023/08/05 02:23:15;;;;;;;;;;;15.60;99.90;;;;;;7315891;19;9504;-83
2023/08/05 02:25:45;;;;;;;;;;;15.60;99.90;;;;;;7318563;19;9460;-82
2023/08/05 02:28:13;;;;;;;;;;;15.50;99.90;;;;;;7316857;19;9279;-83
2023/08/05 02:30:45;;;;;;;;;;;15.50;99.90;;;;;;7318696;19;9181;-82
2023/08/05 02:33:14;;;;;;;;;;;15.50;99.90;;;;;;7320402;19;9249;-83
2023/08/05 02:35:43;;;;;;;;;;;15.50;99.90;;;;;;7325968;19;9130;-83
2023/08/05 02:38:12;;;;;;;;;;;15.50;99.90;;;;;;7324901;19;9166;-82
2023/08/05 02:40:42;;;;;;;;;;;15.40;99.90;;;;;;7326013;19;9912;-83
2023/08/05 02:43:11;;;;;;;;;;;15.40;99.90;;;;;;7325597;19;10764;-82
2023/08/05 02:45:40;;;;;;;;;;;15.20;99.90;;;;;;7325298;19;9519;-83
2023/08/05 02:48:12;;;;;;;;;;;15.20;99.90;;;;;;7325172;19;9434;-83
2023/08/05 02:50:41;;;;;;;;;;;15.10;99.90;;;;;;7325551;19;9265;-83
2023/08/05 02:53:10;;;;;;;;;;;15.00;99.90;;;;;;7325828;19;9394;-83
2023/08/05 02:55:39;;;;;;;;;;;15.00;99.90;;;;;;7324689;19;9264;-83
2023/08/05 02:58:08;;;;;;;;;;;15.00;99.90;;;;;;7327612;19;9137;-83
2023/08/05 03:00:37;;;;;;;;;;;14.90;99.90;;;;;;7324698;19;9464;-83
2023/08/05 03:03:07;;;;;;;;;;;14.80;99.90;;;;;;7325501;19;9464;-83
2023/08/05 03:05:38;;;;;;;;;;;14.70;99.90;;;;;;7324015;19;9263;-83
2023/08/05 03:08:07;;;;;;;;;;;14.60;99.90;;;;;;7322280;19;9298;-83
2023/08/05 03:10:36;;;;;;;;;;;14.50;99.90;;;;;;7320786;19;9515;-83
2023/08/05 03:13:05;;;;;;;;;;;14.40;99.90;;;;;;7323693;19;9481;-83
2023/08/05 03:15:35;;;;;;;;;;;14.30;99.90;;;;;;7323622;19;9202;-83
2023/08/05 03:18:04;;;;;;;;;;;14.30;99.90;;;;;;7324342;19;9206;-83
2023/08/05 03:20:34;;;;;;;;;;;14.20;99.90;;;;;;7323479;19;9122;-82
2023/08/05 03:23:06;;;;;;;;;;;14.20;99.90;;;;;;7324053;19;9140;-82
2023/08/05 03:25:35;;;;;;;;;;;14.20;99.90;;;;;;7323156;19;10376;-83
2023/08/05 03:28:04;;;;;;;;;;;14.20;99.90;;;;;;7323170;19;11150;-83
2023/08/05 03:30:32;;;;;;;;;;;14.10;99.90;;;;;;7322243;19;9276;-83
2023/08/05 03:33:01;;;;;;;;;;;14.00;99.90;;;;;;7323657;19;10579;-82
2023/08/05 03:35:30;;;;;;;;;;;14.00;99.90;;;;;;7323354;19;9292;-82
2023/08/05 03:37:59;;;;;;;;;;;14.00;99.90;;;;;;7322179;19;9578;-83
2023/08/05 03:40:31;;;;;;;;;;;14.10;99.90;;;;;;7323126;19;9356;-83
2023/08/05 03:43:01;;;;;;;;;;;14.10;99.90;;;;;;7322448;19;9504;-83
2023/08/05 03:45:29;;;;;;;;;;;14.10;99.90;;;;;;7320531;19;9328;-82
2023/08/05 03:47:58;;;;;;;;;;;14.10;99.90;;;;;;7322287;19;9159;-83
2023/08/05 03:50:28;;;;;;;;;;;14.20;99.90;;;;;;7320872;19;8976;-82
2023/08/05 03:52:58;;;;;;;;;;;14.20;99.90;;;;;;7322456;19;9253;-83
2023/08/05 03:55:27;;;;;;;;;;;14.20;99.90;;;;;;7321774;19;9253;-83
2023/08/05 03:57:58;;;;;;;;;;;14.20;99.90;;;;;;7321973;19;9291;-82
2023/08/05 04:00:28;;;;;;;;;;;14.20;99.90;;;;;;7321742;19;8944;-83
2023/08/05 04:02:57;;;;;;;;;;;14.20;99.90;;;;;;7321824;19;9229;-82
2023/08/05 04:05:26;;;;;;;;;;;14.30;99.90;;;;;;7322511;19;9162;-82
2023/08/05 04:07:55;;;;;;;;;;;14.30;99.90;;;;;;7320169;19;9305;-82
2023/08/05 04:10:24;;;;;;;;;;;14.30;99.90;;;;;;7320820;19;9503;-82
2023/08/05 04:12:54;;;;;;;;;;;14.30;99.90;;;;;;7321825;19;11218;-83
2023/08/05 04:15:28;;;;;;;;;;;14.30;99.90;;;;;;7322196;19;9209;-82
2023/08/05 04:17:59;;;;;;;;;;;14.40;99.90;;;;;;7322191;19;10809;-82
2023/08/05 04:20:30;;;;;;;;;;;14.40;99.90;;;;;;7322539;19;9178;-82
2023/08/05 04:22:59;;;;;;;;;;;14.40;99.90;;;;;;7322089;19;9253;-83
2023/08/05 04:25:31;;;;;;;;;;;14.50;99.90;;;;;;7322010;19;9269;-83
2023/08/05 04:28:00;;;;;;;;;;;14.60;99.90;;;;;;7321588;19;9489;-83
2023/08/05 04:30:31;;;;;;;;;;;14.60;99.90;;;;;;7320209;19;10523;-82
2023/08/05 04:33:00;;;;;;;;;;;14.70;99.90;;;;;;7322014;19;10356;-83
2023/08/05 04:35:29;;;;;;;;;;;14.70;99.90;;;;;;7320815;19;9466;-82
2023/08/05 04:37:58;;;;;;;;;;;14.70;99.90;;;;;;7321546;19;9248;-83
2023/08/05 04:40:27;;;;;;;;;;;14.70;99.90;;;;;;7320066;19;9265;-82
2023/08/05 04:42:56;;;;;;;;;;;14.70;99.90;;;;;;7321015;19;9359;-83
2023/08/05 04:45:26;;;;;;;;;;;14.70;99.90;;;;;;7319391;19;9255;-83
2023/08/05 04:47:57;;;;;;;;;;;14.60;99.90;;;;;;7320901;19;9427;-83
2023/08/05 04:50:26;;;;;;;;;;;14.60;99.90;;;;;;7318028;19;9460;-83
2023/08/05 04:52:55;;;;;;;;;;;14.60;99.90;;;;;;7320502;19;9170;-83
2023/08/05 04:55:24;;;;;;;;;;;14.60;99.90;;;;;;7318681;19;9253;-82
2023/08/05 04:57:55;;;;;;;;;;;14.50;99.90;;;;;;7320065;19;9485;-83
2023/08/05 05:00:25;;;;;;;;;;;14.60;99.90;;;;;;7318416;19;9867;-83
2023/08/05 05:02:57;;;;;;;;;;;14.60;99.90;;;;;;7321031;19;9210;-82
2023/08/05 05:05:26;;;;;;;;;;;14.60;99.90;;;;;;7319114;19;9466;-82
2023/08/05 05:07:55;;;;;;;;;;;14.50;99.90;;;;;;7319526;19;9424;-82
2023/08/05 05:10:24;;;;;;;;;;;14.50;99.90;;;;;;7320658;19;9657;-83
2023/08/05 05:12:52;;;;;;;;;;;14.60;99.90;;;;;;7321237;19;9309;-82
2023/08/05 05:15:22;;;;;;;;;;;14.60;99.90;;;;;;7320738;19;9352;-82
2023/08/05 05:17:51;;;;;;;;;;;14.70;99.90;;;;;;7319186;19;9265;-83
2023/08/05 05:20:22;;;;;;;;;;;14.70;99.90;;;;;;7319940;19;9556;-83
2023/08/05 05:22:51;;;;;;;;;;;14.70;99.90;;;;;;7318692;19;9125;-83
2023/08/05 05:25:20;;;;;;;;;;;14.80;99.90;;;;;;7319690;19;9431;-83
2023/08/05 05:27:49;;;;;;;;;;;14.80;99.90;;;;;;7318464;19;9463;-83
2023/08/05 05:30:18;;;;;;;;;;;14.90;99.90;;;;;;7318295;19;9611;-83
2023/08/05 05:32:47;;;;;;;;;;;14.90;99.90;;;;;;7318624;19;9256;-82
2023/08/05 05:35:16;;;;;;;;;;;14.90;99.90;;;;;;7319364;19;9211;-82
2023/08/05 05:37:48;;;;;;;;;;;15.00;99.90;;;;;;7318171;19;9570;-83
2023/08/05 05:40:17;;;;;;;;;;;15.50;99.90;;;;;;7319102;19;9261;-83
2023/08/05 05:42:48;;;;;;;;;;;15.50;99.90;;;;;;7317871;19;9264;-83
2023/08/05 05:45:17;;;;;;;;;;;15.50;99.90;;;;;;7318749;19;9309;-82
2023/08/05 05:47:47;;;;;;;;;;;15.40;99.90;;;;;;7318293;19;9280;-83
2023/08/05 05:50:16;;;;;;;;;;;15.30;99.90;;;;;;7318805;19;9192;-83
2023/08/05 05:52:50;;;;;;;;;;;15.30;99.90;;;;;;7318822;19;9108;-82
2023/08/05 05:55:19;;;;;;;;;;;15.30;99.90;;;;;;7319116;19;9539;-82
2023/08/05 05:57:48;;;;;;;;;;;15.40;99.90;;;;;;7318662;19;9148;-82
2023/08/05 06:00:17;;;;;;;;;;;15.40;99.90;;;;;;7318835;19;9688;-83
2023/08/05 06:02:46;;;;;;;;;;;15.50;99.90;;;;;;7319240;19;9476;-83
2023/08/05 06:05:17;;;;;;;;;;;15.60;99.90;;;;;;7318810;19;9129;-83
2023/08/05 06:07:49;;;;;;;;;;;15.70;99.90;;;;;;7319711;19;10682;-82
2023/08/05 06:10:18;;;;;;;;;;;15.80;99.90;;;;;;7325185;19;9225;-82
2023/08/05 06:12:47;;;;;;;;;;;16.00;99.90;;;;;;7326238;19;9185;-83
2023/08/05 06:15:16;;;;;;;;;;;16.40;99.90;;;;;;7324591;19;9205;-83
2023/08/05 06:17:46;;;;;;;;;;;16.50;99.90;;;;;;7325764;19;9407;-83
2023/08/05 06:20:14;;;;;;;;;;;16.50;99.90;;;;;;7324881;19;9078;-83
2023/08/05 06:22:43;;;;;;;;;;;16.50;99.90;;;;;;7325464;19;9190;-83
2023/08/05 06:25:15;;;;;;;;;;;16.50;99.90;;;;;;7324838;19;9657;-83
2023/08/05 06:27:44;;;;;;;;;;;16.60;99.90;;;;;;7325983;19;9624;-83
2023/08/05 06:30:14;;;;;;;;;;;16.60;99.90;;;;;;7323227;19;9520;-83
2023/08/05 06:32:43;;;;;;;;;;;16.60;99.90;;;;;;7325460;19;9275;-82
2023/08/05 06:35:11;;;;;;;;;;;16.60;99.90;;;;;;7324036;19;9474;-83
2023/08/05 06:37:40;;;;;;;;;;;16.60;99.90;;;;;;7325393;19;9229;-82
2023/08/05 06:40:11;;;;;;;;;;;16.60;99.90;;;;;;7324596;19;9119;-82
2023/08/05 06:42:42;;;;;;;;;;;16.70;99.90;;;;;;7324782;19;9294;-82
2023/08/05 06:45:11;;;;;;;;;;;16.70;99.90;;;;;;7324256;19;9252;-82
2023/08/05 06:47:40;;;;;;;;;;;16.50;99.90;;;;;;7324549;19;9413;-83
2023/08/05 06:50:11;;;;;;;;;;;16.50;99.90;;;;;;7324095;19;9309;-82
2023/08/05 06:52:40;;;;;;;;;;;16.50;99.90;;;;;;7324451;19;9272;-82
2023/08/05 06:55:09;;;;;;;;;;;16.60;99.90;;;;;;7325165;19;9353;-83
2023/08/05 06:57:39;;;;;;;;;;;16.60;99.90;;;;;;7323402;19;9237;-83
2023/08/05 07:00:12;;;;;;;;;;;16.70;99.90;;;;;;7323457;19;9236;-82
2023/08/05 07:02:41;;;;;;;;;;;16.80;99.90;;;;;;7323943;19;9218;-83
2023/08/05 07:05:10;;;;;;;;;;;17.00;99.90;;;;;;7324040;19;9587;-83
2023/08/05 07:07:39;;;;;;;;;;;17.10;99.90;;;;;;7321344;19;9117;-83
2023/08/05 07:10:11;;;;;;;;;;;17.10;99.90;;;;;;7323704;19;9461;-82
2023/08/05 07:12:40;;;;;;;;;;;17.10;99.90;;;;;;7322851;19;9510;-82
2023/08/05 07:15:12;;;;;;;;;;;17.20;99.90;;;;;;7323892;19;8944;-82
2023/08/05 07:17:41;;;;;;;;;;;17.50;99.90;;;;;;7323322;19;9113;-83
2023/08/05 07:20:11;;;;;;;;;;;17.70;99.90;;;;;;7321882;19;8945;-83
2023/08/05 07:22:40;;;;;;;;;;;18.00;99.90;;;;;;7323954;19;9556;-83
2023/08/05 07:25:09;;;;;;;;;;;18.50;99.90;;;;;;7323584;19;10178;-83
2023/08/05 07:27:38;;;;;;;;;;;18.70;99.90;;;;;;7322881;19;9573;-83
2023/08/05 07:30:12;;;;;;;;;;;18.90;99.90;;;;;;7323610;19;9261;-83
2023/08/05 07:32:41;;;;;;;;;;;19.00;99.90;;;;;;7322150;19;9158;-83
2023/08/05 07:35:10;;;;;;;;;;;19.10;99.90;;;;;;7323376;19;9233;-83
2023/08/05 07:37:39;;;;;;;;;;;19.50;99.90;;;;;;7322328;19;9162;-82
2023/08/05 07:40:12;;;;;;;;;;;19.70;99.90;;;;;;7323481;19;8944;-82
2023/08/05 07:42:42;;;;;;;;;;;19.80;99.90;;;;;;7322628;19;9108;-82
2023/08/05 07:45:17;;;;;;;;;;;19.80;99.90;;;;;;7323281;19;9575;-82
2023/08/05 07:47:46;;;;;;;;;;;19.70;99.90;;;;;;7321207;19;9460;-83
2023/08/05 07:50:21;;;;;;;;;;;19.60;99.90;;;;;;7323004;19;9442;-82
2023/08/05 07:52:50;;;;;;;;;;;19.40;99.90;;;;;;7321893;19;11188;-82
2023/08/05 07:55:20;;;;;;;;;;;19.40;99.90;;;;;;7323120;19;9708;-82
2023/08/05 07:57:49;;;;;;;;;;;19.40;99.90;;;;;;7322472;19;9332;-82
2023/08/05 08:00:20;;;;;;;;;;;19.60;99.90;;;;;;7322322;19;9685;-83
2023/08/05 08:02:50;;;;;;;;;;;19.90;99.90;;;;;;7322929;19;9461;-82
2023/08/05 08:05:19;;;;;;;;;;;20.20;99.90;;;;;;7323064;19;9236;-83
2023/08/05 08:07:50;;;;;;;;;;;20.30;99.90;;;;;;7320351;19;9401;-83
2023/08/05 08:10:24;;;;;;;;;;;20.20;98.90;;;;;;7322224;19;10394;-83
2023/08/05 08:12:53;;;;;;;;;;;20.20;99.60;;;;;;7322540;19;9295;-83
2023/08/05 08:15:25;;;;;;;;;;;20.20;99.50;;;;;;7322600;19;9229;-83
2023/08/05 08:17:54;;;;;;;;;;;20.20;96.90;;;;;;7322274;19;9458;-82
2023/08/05 08:20:23;;;;;;;;;;;20.40;96.40;;;;;;7322179;19;9653;-84
2023/08/05 08:22:53;;;;;;;;;;;20.80;97.20;;;;;;7322408;19;11208;-82
2023/08/05 08:25:21;;;;;;;;;;;21.00;94.10;;;;;;7321028;19;9514;-82
2023/08/05 08:27:50;;;;;;;;;;;21.00;95.60;;;;;;7321207;19;9237;-82
2023/08/05 08:30:20;;;;;;;;;;;20.90;92.60;;;;;;7320014;19;9170;-83
2023/08/05 08:32:51;;;;;;;;;;;21.10;92.20;;;;;;7321168;19;9446;-82
2023/08/05 08:35:20;;;;;;;;;;;21.20;90.50;;;;;;7320710;19;9129;-82
2023/08/05 08:37:49;;;;;;;;;;;21.20;87.50;;;;;;7321219;19;9517;-82
2023/08/05 08:40:18;;;;;;;;;;;21.10;91.40;;;;;;7320739;19;9217;-81
2023/08/05 08:42:47;;;;;;;;;;;21.00;93.90;;;;;;7321478;19;9078;-82
2023/08/05 08:45:20;;;;;;;;;;;20.90;92.90;;;;;;7319542;19;9306;-82
2023/08/05 08:47:52;;;;;;;;;;;20.80;92.70;;;;;;7321561;19;9248;-82
2023/08/05 08:50:23;;;;;;;;;;;20.70;92.30;;;;;;7319897;19;9468;-82
2023/08/05 08:52:55;;;;;;;;;;;20.60;92.80;;;;;;7321464;19;9356;-83
2023/08/05 08:55:25;;;;;;;;;;;20.70;93.50;;;;;;7319870;19;9217;-82
2023/08/05 08:57:54;;;;;;;;;;;20.70;93.50;;;;;;7321510;19;9292;-82
2023/08/05 09:00:23;;;;;;;;;;;20.70;92.70;;;;;;7319413;19;9286;-82
2023/08/05 09:02:56;;;;;;;;;;;20.70;92.70;;;;;;7320597;19;9535;-83
2023/08/05 09:05:25;;;;;;;;;;;20.60;91.20;;;;;;7320734;19;9252;-82
2023/08/05 09:07:54;;;;;;;;;;;20.60;92.80;;;;;;7320328;19;9321;-82
2023/08/05 09:10:24;;;;;;;;;;;20.60;92.50;;;;;;7321200;19;9339;-82
2023/08/05 09:12:53;;;;;;;;;;;20.60;92.40;;;;;;7320673;19;10711;-82
2023/08/05 09:15:24;;;;;;;;;;;20.80;92.70;;;;;;7320609;19;9508;-82
2023/08/05 09:18:00;;;;;;;;;;;21.00;93.00;;;;;;7321237;19;9430;-82
2023/08/05 09:20:29;;;;;;;;;;;21.10;93.80;;;;;;7320334;19;9482;-82
2023/08/05 09:23:00;;;;;;;;;;;21.30;93.20;;;;;;7321023;19;9099;-81
2023/08/05 09:25:30;;;;;;;;;;;21.40;92.50;;;;;;7321310;19;11489;-83
2023/08/05 09:28:01;;;;;;;;;;;21.40;91.40;;;;;;7320030;19;9302;-83
2023/08/05 09:30:30;;;;;;;;;;;21.40;93.00;;;;;;7321830;19;9266;-83
2023/08/05 09:33:02;;;;;;;;;;;21.20;92.80;;;;;;7320427;19;9342;-82
2023/08/05 09:35:31;;;;;;;;;;;21.10;92.10;;;;;;7320101;19;9518;-83
2023/08/05 09:38:01;;;;;;;;;;;21.20;90.90;;;;;;7318878;19;10958;-82
2023/08/05 09:40:32;;;;;;;;;;;21.10;91.70;;;;;;7319858;19;9627;-83
2023/08/05 09:43:03;;;;;;;;;;;21.10;90.60;;;;;;7322123;19;9337;-82
2023/08/05 09:45:33;;;;;;;;;;;21.20;90.70;;;;;;7327264;19;9335;-83
2023/08/05 09:48:07;;;;;;;;;;;21.20;88.70;;;;;;7326394;19;9403;-83
2023/08/05 09:50:40;;;;;;;;;;;21.30;90.60;;;;;;7326740;19;9233;-82
2023/08/05 09:53:13;;;;;;;;;;;21.40;88.20;;;;;;7326799;19;9430;-82
2023/08/05 09:55:43;;;;;;;;;;;21.60;90.00;;;;;;7326806;19;8945;-83
2023/08/05 09:58:13;;;;;;;;;;;21.80;89.20;;;;;;7327625;19;9281;-82
2023/08/05 10:00:45;;;;;;;;;;;21.90;83.40;;;;;;7325750;19;9168;-82
2023/08/05 10:03:16;;;;;;;;;;;22.00;84.60;;;;;;7326593;19;9427;-82
2023/08/05 10:05:47;;;;;;;;;;;22.10;81.50;;;;;;7327337;19;9231;-82
2023/08/05 10:08:19;;;;;;;;;;;22.10;81.70;;;;;;7324913;19;9278;-82
2023/08/05 10:10:50;;;;;;;;;;;22.00;79.50;;;;;;7326987;19;9312;-83
2023/08/05 10:13:22;;;;;;;;;;;22.10;79.70;;;;;;7327338;19;9238;-83
2023/08/05 10:15:56;;;;;;;;;;;21.90;80.30;;;;;;7327183;19;9433;-83
2023/08/05 10:18:28;;;;;;;;;;;22.00;82.60;;;;;;7326648;19;9253;-83
2023/08/05 10:20:57;;;;;;;;;;;22.10;82.80;;;;;;7325898;19;9197;-83
2023/08/05 10:23:27;;;;;;;;;;;22.20;82.10;;;;;;7326562;19;10392;-82
2023/08/05 10:26:02;;;;;;;;;;;21.90;77.90;;;;;;7326637;19;9311;-82
2023/08/05 10:28:46;;;;;;;;;;;21.70;78.10;;;;;;7326513;19;9193;-83
2023/08/05 10:31:31;;;;;;;;;;;21.80;80.40;;;;;;7324508;19;10564;-83
2023/08/05 10:34:21;;;;;;;;;;;21.90;80.30;;;;;;7326422;19;9260;-83
2023/08/05 10:36:50;;;;;;;;;;;22.00;76.90;;;;;;7325403;19;9265;-82
2023/08/05 10:39:44;;;;;;;;;;;22.00;77.60;;;;;;7325179;19;9268;-82
2023/08/05 10:42:34;;;;;;;;;;;22.20;78.80;;;;;;7324242;19;9380;-82
2023/08/05 10:45:06;;;;;;;;;;;22.20;80.10;;;;;;7325589;19;9470;-82
2023/08/05 10:47:36;;;;;;;;;;;22.40;79.60;;;;;;7325429;19;9611;-81
2023/08/05 10:50:16;;;;;;;;;;;22.50;80.30;;;;;;7325495;19;9261;-83
2023/08/05 10:52:47;;;;;;;;;;;22.50;79.50;;;;;;7323448;19;10334;-82
2023/08/05 10:55:16;;;;;;;;;;;22.40;78.70;;;;;;7322821;19;9114;-82
2023/08/05 10:57:54;;;;;;;;;;;22.40;75.40;;;;;;7325136;19;9115;-82
2023/08/05 11:00:25;;;;;;;;;;;22.30;74.30;;;;;;7322296;19;10154;-82
2023/08/05 11:03:26;;;;;;;;;;;22.40;76.60;;;;;;7324576;19;9249;-83
2023/08/05 11:06:01;;;;;;;;;;;22.60;77.60;;;;;;7324627;19;9713;-82
2023/08/05 11:08:30;;;;;;;;;;;22.60;77.30;;;;;;7323055;19;9327;-82
2023/08/05 11:11:02;;;;;;;;;;;22.60;77.10;;;;;;7324287;19;9419;-82
2023/08/05 11:13:35;;;;;;;;;;;22.50;77.10;;;;;;7320657;19;9297;-83
2023/08/05 11:16:06;;;;;;;;;;;22.50;77.40;;;;;;7324367;19;9419;-81
2023/08/05 11:18:36;;;;;;;;;;;22.50;77.70;;;;;;7323568;19;9166;-82
2023/08/05 11:21:10;;;;;;;;;;;22.40;77.10;;;;;;7323716;19;9313;-82
2023/08/05 11:23:40;;;;;;;;;;;22.20;78.50;;;;;;7323242;19;9264;-82
2023/08/05 11:26:11;;;;;;;;;;;22.20;77.00;;;;;;7323899;19;9292;-82
2023/08/05 11:28:45;;;;;;;;;;;22.00;76.70;;;;;;7322465;19;9511;-82
2023/08/05 11:31:24;;;;;;;;;;;22.00;76.70;;;;;;7324396;19;9233;-82
2023/08/05 11:33:53;;;;;;;;;;;22.20;76.90;;;;;;7324365;19;9246;-82
2023/08/05 11:36:30;;;;;;;;;;;22.50;77.10;;;;;;7324681;19;9268;-81
2023/08/05 11:39:00;;;;;;;;;;;22.50;76.10;;;;;;7323601;19;9193;-82
2023/08/05 11:41:30;;;;;;;;;;;22.30;75.50;;;;;;7324083;19;9260;-82
2023/08/05 11:43:59;;;;;;;;;;;22.20;76.20;;;;;;7322236;19;9253;-83
2023/08/05 11:46:29;;;;;;;;;;;22.30;76.50;;;;;;7322686;19;9118;-82
2023/08/05 11:49:11;;;;;;;;;;;22.50;76.50;;;;;;7321959;19;9326;-81
2023/08/05 11:51:51;;;;;;;;;;;22.70;76.50;;;;;;7322769;19;9161;-83
2023/08/05 11:54:29;;;;;;;;;;;22.60;75.90;;;;;;7323575;19;9178;-82
2023/08/05 11:56:58;;;;;;;;;;;22.60;75.60;;;;;;7322117;19;10281;-82
2023/08/05 11:59:45;;;;;;;;;;;22.60;76.10;;;;;;7322427;19;9352;-82
2023/08/05 12:02:16;;;;;;;;;;;22.50;75.40;;;;;;7322697;19;9740;-82
2023/08/05 12:04:46;;;;;;;;;;;22.60;76.80;;;;;;7321922;19;9277;-82
2023/08/05 12:07:18;;;;;;;;;;;22.50;76.50;;;;;;7320351;19;9477;-82
2023/08/05 12:09:48;;;;;;;;;;;22.50;77.40;;;;;;7322481;19;9183;-82
2023/08/05 12:12:18;;;;;;;;;;;22.40;77.50;;;;;;7320915;19;9563;-82
2023/08/05 12:14:47;;;;;;;;;;;22.30;78.80;;;;;;7321404;19;9298;-83
2023/08/05 12:17:16;;;;;;;;;;;22.30;80.00;;;;;;7321541;19;9517;-82
2023/08/05 12:19:45;;;;;;;;;;;22.30;78.60;;;;;;7321814;19;9458;-82
2023/08/05 12:22:16;;;;;;;;;;;22.20;77.30;;;;;;7321141;19;9288;-82
2023/08/05 12:24:45;;;;;;;;;;;22.10;78.70;;;;;;7321778;19;9491;-83
2023/08/05 12:27:15;;;;;;;;;;;22.20;79.00;;;;;;7320555;19;9601;-82
2023/08/05 12:29:44;;;;;;;;;;;22.20;80.00;;;;;;7321905;19;9593;-82
2023/08/05 12:32:13;;;;;;;;;;;22.30;78.60;;;;;;7319773;19;9208;-83
2023/08/05 12:34:42;;;;;;;;;;;22.10;78.30;;;;;;7321707;19;9213;-82
2023/08/05 12:37:11;;;;;;;;;;;22.10;77.90;;;;;;7320676;19;9387;-82
2023/08/05 12:39:43;;;;;;;;;;;22.00;76.40;;;;;;7321691;19;9264;-82
2023/08/05 12:42:11;;;;;;;;;;;22.00;77.30;;;;;;7320425;19;9229;-82
2023/08/05 12:44:40;;;;;;;;;;;22.00;76.50;;;;;;7321733;19;11115;-82
2023/08/05 12:47:09;;;;;;;;;;;22.10;77.50;;;;;;7321781;19;9240;-82
2023/08/05 12:49:39;;;;;;;;;;;22.00;77.70;;;;;;7321145;19;9311;-82
2023/08/05 12:52:09;;;;;;;;;;;22.00;77.60;;;;;;7320715;19;9289;-82
2023/08/05 12:54:41;;;;;;;;;;;22.00;79.10;;;;;;7321184;19;9500;-83
2023/08/05 12:57:10;;;;;;;;;;;21.90;78.10;;;;;;7320540;19;9152;-82
2023/08/05 12:59:39;;;;;;;;;;;21.90;78.10;;;;;;7319603;19;9248;-83
2023/08/05 13:02:08;;;;;;;;;;;21.90;78.80;;;;;;7318554;19;9299;-83
2023/08/05 13:04:37;;;;;;;;;;;21.80;78.20;;;;;;7319523;19;9232;-82
2023/08/05 13:07:06;;;;;;;;;;;21.80;78.70;;;;;;7320394;19;10208;-83
2023/08/05 13:09:37;;;;;;;;;;;21.70;77.70;;;;;;7319211;19;9486;-82
2023/08/05 13:12:09;;;;;;;;;;;21.60;78.80;;;;;;7320855;19;9361;-82
2023/08/05 13:14:38;;;;;;;;;;;21.60;79.50;;;;;;7319323;19;9252;-83
2023/08/05 13:17:07;;;;;;;;;;;21.40;79.70;;;;;;7319582;19;9312;-82
2023/08/05 13:19:37;;;;;;;;;;;21.40;80.70;;;;;;7319131;19;9261;-82
2023/08/05 13:22:06;;;;;;;;;;;21.30;81.70;;;;;;7320266;19;9474;-83
2023/08/05 13:24:35;;;;;;;;;;;21.20;82.50;;;;;;7318965;19;8944;-85
2023/08/05 13:27:08;;;;;;;;;;;21.20;82.20;;;;;;7320640;19;9396;-82
2023/08/05 13:29:37;;;;;;;;;;;21.30;82.50;;;;;;7318782;19;9343;-83
2023/08/05 13:32:07;;;;;;;;;;;21.40;83.40;;;;;;7320335;19;9632;-83
2023/08/05 13:34:36;;;;;;;;;;;21.50;83.50;;;;;;7318954;19;9246;-83
2023/08/05 13:37:05;;;;;;;;;;;21.50;83.10;;;;;;7320095;19;9514;-82
2023/08/05 13:39:34;;;;;;;;;;;21.50;82.60;;;;;;7320117;19;9182;-82
2023/08/05 13:42:03;;;;;;;;;;;21.50;82.80;;;;;;7320615;19;9230;-83
2023/08/05 13:44:35;;;;;;;;;;;21.20;86.90;;;;;;7320242;19;9597;-82
2023/08/05 13:47:04;;;;;;;;;;;21.00;91.30;;;;;;7319894;19;9101;-83
2023/08/05 13:49:33;;;;;;;;;;;20.80;95.50;;;;;;7319923;19;9250;-83
2023/08/05 13:52:02;;;;;;;;;;;20.80;96.00;;;;;;7318401;19;9111;-83
2023/08/05 13:54:31;;;;;;;;;;;20.60;97.10;;;;;;7318995;19;9457;-83
2023/08/05 13:57:00;;;;;;;;;;;20.60;99.00;;;;;;7318356;19;9544;-83
2023/08/05 13:59:29;;;;;;;;;;;20.50;99.80;;;;;;7318589;19;11131;-83
2023/08/05 14:02:01;;;;;;;;;;;20.60;99.90;;;;;;7315706;19;9302;-82
2023/08/05 14:04:30;;;;;;;;;;;20.70;99.90;;;;;;7318927;19;10700;-82
2023/08/05 14:06:59;;;;;;;;;;;20.70;99.60;;;;;;7316800;19;10871;-83
2023/08/05 14:09:27;;;;;;;;;;;20.70;99.40;;;;;;7318844;19;9449;-83
2023/08/05 14:11:56;;;;;;;;;;;20.70;98.80;;;;;;7317738;19;9628;-82
2023/08/05 14:14:25;;;;;;;;;;;20.70;97.60;;;;;;7317160;19;10364;-82
2023/08/05 14:16:54;;;;;;;;;;;20.60;97.20;;;;;;7317991;19;9177;-83
2023/08/05 14:19:26;;;;;;;;;;;20.50;98.10;;;;;;7319479;19;9309;-82
2023/08/05 14:21:55;;;;;;;;;;;20.50;97.80;;;;;;7318688;19;9221;-82
2023/08/05 14:24:24;;;;;;;;;;;20.50;98.20;;;;;;7318264;19;9475;-82
2023/08/05 14:26:53;;;;;;;;;;;20.40;99.10;;;;;;7318642;19;9238;-82
2023/08/05 14:29:21;;;;;;;;;;;20.30;99.60;;;;;;7322375;19;9600;-82
2023/08/05 14:31:50;;;;;;;;;;;20.30;99.90;;;;;;7325962;19;11720;-82
2023/08/05 14:34:19;;;;;;;;;;;20.30;99.90;;;;;;7322296;19;9401;-82
2023/08/05 14:36:52;;;;;;;;;;;20.40;99.60;;;;;;7325079;19;9447;-82
2023/08/05 14:39:21;;;;;;;;;;;20.40;99.90;;;;;;7324339;19;9256;-82
2023/08/05 14:41:50;;;;;;;;;;;20.30;99.90;;;;;;7325197;19;9005;-83
2023/08/05 14:44:19;;;;;;;;;;;20.30;99.90;;;;;;7323958;19;9452;-82
2023/08/05 14:46:48;;;;;;;;;;;20.20;99.60;;;;;;7322830;19;11223;-82